Main page
METAR-TAF:

METAR-TAF

Airports :

Murcia–San Javier Airport

Murcia, Spain

latitude: 37-47N, longitude: 000-48W, elevation: 5 m

Current weather observation

The report was made 24 minutes ago, at 00:30 UTC
Wind 4 kt from the Northwest
Temperature 15°C
Humidity 59%
Pressure 1019 hPa
Visibility 10 km or more
no clouds below 1500 m and no cumulonimbus

METAR: LELC 260030Z AUTO 31004KT CAVOK 15/07 Q1019

Time: 02:54 (00:54 UTC)

Forecast

The report was made 1 hour and 54 minutes ago, at 23:00 UTC
Forecast valid from 26 at 00 UTC to 26 at 24 UTC
Wind 10 kt from the Northwest
Visibility 10 km or more
Few clouds at a height of 3000 ft
Temporary
from 26 at 00 UTC to 26 at 06 UTC
Wind 3 kt from variable directions
Becoming
from 26 at 14 UTC to 26 at 16 UTC
Wind 10 kt from the South/Southwest

TAF: LELC 252300Z 2600/2624 31010KT 9999 FEW030 TX23/2613Z TN11/2606Z TEMPO 2600/2606 VRB03KT BECMG 2614/2616 20010KT

Weather observations and forecasts of more than 4000 airports (METAR and TAF reports).

The available stations are represented by yellow and red dots on the map.

Hover mouse over dot to see the name of the station.

Then click to see weather observations and forecasts.

To change the map : click on the green buttons with a black cross to zoom in, on the green button with a dash to zoom out, or on the green arrows for adjacent maps.


METAR-TAF: